Logo AVAMET
Benvolgut visitant, si us plau, ingressa Recuperar contrasenya

les Alqueries

Dades diàries. Acumulats / Últims 30 dies disponibles

Data Temperatura (°C) Humitat rel. (%) Pressió rel. (hPa) Vent (km/h) Precipitació
Mínima Mitjana Màxima Amplitud
tèrmica
Mínima Mitjana Màxima Mínima Mitjana Màxima Predom. Mitjana Ràfega
màxima
Total
(mm)
Índex-n
Mínima Mitjana Màxima Mínima Mitjana Màxima n
0 a 1
P0 max
mm 5'
Dades mensuals acumulades fins l'últim dia disponible
01/2020 2,2 5,0 7,4 9,5 12,8 15,4 19,9 17,7 34 74 93 1.019 1.028 1.034   5,4 46,7 0,0
Dades anuals acumulades fins l'últim dia disponible
2020 2,2 5,0 7,4 9,5 12,8 15,4 19,9 17,7 34 74 93 1.019 1.028 1.034   5,4 46,7 0,0
Últims 30 dies disponibles
18-01-2020 6,7     11,7     18,3 11,6 47 64 77 1.019 1.026 1.032 NW 6,0 29,0 0,0
17-01-2020 5,8     12,4     19,9 14,1 35 61 91 1.025 1.027 1.031 WNW 7,1 40,2 0,0
16-01-2020 5,8     10,7     17,8 12,0 50 74 90 1.026 1.027 1.029 NW 4,7 20,9 0,0
15-01-2020 3,2     8,1     14,0 10,8 52 73 83 1.022 1.024 1.027 NW 4,5 17,7 0,0
14-01-2020 2,2     7,4     14,2 12,0 34 69 89 1.021 1.022 1.023 NW 4,7 17,7 0,0
13-01-2020 2,4     7,3     13,3 10,9 44 68 88 1.021 1.025 1.030 NW 3,7 16,1 0,0
12-01-2020 3,1     7,8     13,9 10,8 45 74 91 1.028 1.030 1.031 NW 5,1 19,3 0,0
11-01-2020 5,2     10,3     16,1 10,9 37 61 83 1.028 1.030 1.032 NW 9,2 29,0 0,0
10-01-2020 7,1     10,7     15,2 8,1 42 70 90 1.023 1.025 1.029 NW 9,5 46,7 0,0
09-01-2020 5,8     9,6     14,9 9,1 64 81 90 1.024 1.027 1.031 NW 5,8 22,5 0,0
08-01-2020 5,2     9,3     15,9 10,7 61 83 91 1.027 1.030 1.032 NW 4,2 19,3 0,0
07-01-2020 4,4     8,8     14,6 10,2 63 81 91 1.028 1.030 1.032 NW 4,7 17,7 0,0
06-01-2020 5,2     9,2     15,3 10,1 59 78 91 1.028 1.029 1.030 NW 5,6 20,9 0,0
05-01-2020 4,6     9,6     16,3 11,7 39 70 89 1.026 1.029 1.031 NW 5,3 17,7 0,0
04-01-2020 5,1     9,4     15,7 10,6 52 78 92 1.031 1.032 1.033 NW 4,8 17,7 0,0
03-01-2020 4,9     8,8     14,4 9,5 70 84 92 1.030 1.031 1.033 NW 4,5 20,9 0,0
02-01-2020 7,4     10,1     13,7 6,3 69 80 91 1.030 1.031 1.033 NW 4,2 17,7 0,0
01-01-2020 5,6     9,6     12,8 7,2 78 86 93 1.031 1.032 1.034 NW 4,0 16,1 0,0
31-12-2019 6,3     9,3     13,7 7,4 72 84 93 1.031 1.032 1.035 O 4,6 17,7 0,0
30-12-2019 6,7     10,6     14,8 8,1 66 77 91 1.032 1.032 1.034 NW 5,6 19,3 0,0
29-12-2019 5,6     9,8     15,2 9,6 63 77 89 1.030 1.032 1.034 NW 6,9 22,5 0,0
28-12-2019 4,3     8,9     15,0 10,7 53 74 91 1.029 1.030 1.032 NW 5,0 17,7 0,0
27-12-2019 6,7     10,8     17,3 10,6 40 70 90 1.027 1.029 1.030 NW 4,0 17,7 0,0
26-12-2019 8,1     12,9     20,3 12,2 50 78 90 1.021 1.024 1.030 NW 2,6 16,1 0,0
25-12-2019 9,6     13,8     21,0 11,4 43 68 91 1.022 1.024 1.026 NW 4,2 20,9 0,0
24-12-2019 11,3     15,8     22,1 10,8 43 64 82 1.024 1.026 1.027 NW 4,3 20,9 0,0
23-12-2019 10,4     15,3     19,9 9,5 30 52 72 1.017 1.023 1.026 NW 5,6 48,3 0,0
22-12-2019 17,1     19,2     21,9 4,8 35 45 56 1.005 1.011 1.017 W 12,4 74,0 0,0
21-12-2019 15,3     20,9     25,6 10,3 36 56 77 998 1.001 1.005 W 14,6 67,6 0,2
20-12-2019 10,9     18,1     22,4 11,5 42 67 90 997 1.000 1.007 SW 9,0 53,1 0,0
Últims 13 mesos disponibles
12/2019 4,3 9,4 17,1 13,3 12,5 17,8 25,6 21,3 45 71 93 1.000 1.018 1.032 NW 6,6 74,0 108,2
11/2019 6,1 11,2 18,3 15,4 15,3 20,0 28,4 22,3 40 55 79 996 1.009 1.017 WNW 8,1 57,9 2,4
10/2019 9,7 15,5 19,4 19,5 15,6 24,1 29,1 19,4 47 72 87 1.006 1.016 1.021 NW 5,8 43,5 16,8
09/2019 14,9 19,5 22,4 23,1 21,2 27,0 32,3 17,4 51 73 83 1.009 1.017 1.025 NW 7,1 56,3 67,6
08/2019 16,7 21,3 24,4 25,5 26,3 29,4 33,3 16,6 54 73 85 1.010 1.016 1.020 NW 6,2 70,8 46,4
07/2019 20,3 21,6 23,7 26,0 27,3 29,9 33,6 13,3 49 66 80 1.005 1.014 1.021 NW 6,4 35,4 14,4
06/2019 11,7 17,1 21,7 21,9 20,9 26,1 35,7 24,0 41 65 80 1.007 1.015 1.022 NW 6,7 64,4 0,0
05/2019 8,9 13,5 16,7 17,8 18,1 22,0 28,1 19,2 53 68 87 1.004 1.015 1.024 NW 6,7 54,7 15,2
04/2019 6,2 11,1 14,3 15,0 15,7 19,3 26,7 20,5 46 65 90 998 1.012 1.025 NW 9,1 67,6 33,6
03/2019 6,4 8,8 12,1 13,8 12,7 18,8 24,8 18,4 44 60 85 1.009 1.022 1.029 NW 6,4 45,1 15,4
02/2019 0,9 6,4 11,4 11,4 13,4 17,1 23,6 22,7 27 66 80 992 1.024 1.034 NW 6,1 77,2 0,0
01/2019 2,3 5,6 9,1 10,5 12,7 16,2 22,2 19,9 36 59 79 1.000 1.018 1.030 NW 7,2 75,6 1,4
12/2018 5,1 8,0 11,4 12,2 12,7 17,8 23,7 18,6 54 74 89 1.007 1.024 1.030 NW 4,3 40,2 12,4
Tots els anys disponibles
2019 0,9 13,4 24,4 17,8 12,5 22,3 35,7 34,8 27 66 93 992 1.016 1.034 NW 6,9 77,2 321,3
2018 1,8 13,6 25,9 17,8 7,9 22,2 34,5 32,7 42 74 94 999 1.018 1.030 NW 6,2 75,6 587,8
2017 0,9 13,2 24,9 17,5 9,1 21,9 34,9 34,0 57 58 59 1.016 1.018 1.020 6,6 79,0 362,7
2016 3,1 13,5 24,2 17,5 10,8 21,5 32,0 28,9 57 62 65 1.014 1.018 1.026 90,0 442,8
2015 0,6 13,4 17,9 17,6 18,3 21,7 39,9 39,3 56 67 78 1.016 1.019 1.030 85,0 407,8
2014 1,8 9,6 11,4 13,5 19,3 17,4 21,2 19,4 64 72 80 999 1.011 1.022 79,0 294,8
2013 341,6
Temperatura (°C)
Humitat relativa (%)
Velocitat del vent i ràfega màxima (km/h)
Direcció del vent (°)
Pressió (hPa)
Precipitació (mm)
Nota sobre les dades: s'avisa a l'usuari de la provisionalitat i no oficialitat d'aquestes dades
Logo AVAMET blanc
Web allotjada a Sollutia
Llicència de Creative CommonsLa web d'AVAMET i els seus continguts estan subjectes a una llicència de
Reconeixement - No Comercial - Compartir igual
Últimes estacions: Xixona - Els Ameradors (Soci), Agres - El Tossal (Soci), Xàbia - Bevenguts (MeteoXàbia), Llíria (Aj. Soci/Inforatge), Orihuela - Lo Capitán, Cox & Guardamar del Segura - horta (Meteorihuela), l'Alcúdia - Carriona & el Real de Gandia (Inforatge), Benicàssim - les Vil·les (Soci),  l'Alfàs del Pi - l'Albir (Soci), - - -